sensor_id;sensor_type;location;lat;lon;timestamp;P1;durP1;ratioP1;P2;durP2;ratioP2
52692;SDS011;68218;51.012;-1.648;2023-04-03T14:18:19;13.85;;;5.75;;
52692;SDS011;68218;51.012;-1.648;2023-04-03T14:20:45;15.57;;;5.38;;
52692;SDS011;68218;51.012;-1.648;2023-04-03T14:23:12;16.55;;;6.00;;
52692;SDS011;68218;51.012;-1.648;2023-04-03T14:25:39;19.00;;;6.20;;
52692;SDS011;68218;51.012;-1.648;2023-04-03T14:28:13;19.52;;;6.88;;
52692;SDS011;68218;51.012;-1.648;2023-04-03T14:30:46;18.00;;;6.38;;
52692;SDS011;68218;51.012;-1.648;2023-04-03T14:33:14;17.52;;;5.53;;
52692;SDS011;68218;51.012;-1.648;2023-04-03T14:35:43;14.80;;;6.35;;
52692;SDS011;68218;51.012;-1.648;2023-04-03T14:38:20;12.30;;;5.15;;
52692;SDS011;68218;51.012;-1.648;2023-04-03T14:40:49;14.98;;;5.35;;
52692;SDS011;68218;51.012;-1.648;2023-04-03T14:43:14;14.27;;;5.00;;
52692;SDS011;68218;51.012;-1.648;2023-04-03T14:45:41;13.23;;;4.97;;
52692;SDS011;68218;51.012;-1.648;2023-04-03T14:48:09;15.25;;;4.90;;
52692;SDS011;68218;51.012;-1.648;2023-04-03T14:50:46;15.20;;;4.80;;
52692;SDS011;68218;51.012;-1.648;2023-04-03T14:53:14;12.27;;;4.72;;
52692;SDS011;68218;51.012;-1.648;2023-04-03T14:55:41;14.73;;;4.80;;
52692;SDS011;68218;51.012;-1.648;2023-04-03T14:58:11;14.75;;;5.68;;
52692;SDS011;68218;51.012;-1.648;2023-04-03T15:00:38;15.35;;;4.78;;
52692;SDS011;68218;51.012;-1.648;2023-04-03T15:03:04;17.13;;;4.57;;
52692;SDS011;68218;51.012;-1.648;2023-04-03T15:05:29;14.95;;;4.47;;
52692;SDS011;68218;51.012;-1.648;2023-04-03T15:07:55;14.05;;;4.72;;
52692;SDS011;68218;51.012;-1.648;2023-04-03T15:10:26;15.85;;;4.95;;
52692;SDS011;68218;51.012;-1.648;2023-04-03T15:12:53;14.00;;;4.90;;
52692;SDS011;68218;51.012;-1.648;2023-04-03T15:15:20;16.10;;;5.10;;
52692;SDS011;68218;51.012;-1.648;2023-04-03T15:17:47;15.32;;;5.47;;
52692;SDS011;68218;51.012;-1.648;2023-04-03T15:20:24;17.10;;;5.15;;
52692;SDS011;68218;51.012;-1.648;2023-04-03T15:22:51;14.68;;;5.32;;
52692;SDS011;68218;51.012;-1.648;2023-04-03T15:25:16;16.60;;;4.63;;
52692;SDS011;68218;51.012;-1.648;2023-04-03T15:27:43;15.63;;;4.88;;
52692;SDS011;68218;51.012;-1.648;2023-04-03T15:30:11;14.90;;;5.50;;
52692;SDS011;68218;51.012;-1.648;2023-04-03T15:32:39;14.57;;;5.55;;
52692;SDS011;68218;51.012;-1.648;2023-04-03T15:35:05;14.93;;;5.32;;
52692;SDS011;68218;51.012;-1.648;2023-04-03T15:37:31;15.82;;;4.57;;
52692;SDS011;68218;51.012;-1.648;2023-04-03T15:39:56;15.18;;;4.85;;
52692;SDS011;68218;51.012;-1.648;2023-04-03T15:42:22;13.50;;;5.15;;
52692;SDS011;68218;51.012;-1.648;2023-04-03T15:44:47;19.60;;;5.40;;
52692;SDS011;68218;51.012;-1.648;2023-04-03T15:47:13;18.65;;;4.78;;
52692;SDS011;68218;51.012;-1.648;2023-04-03T15:49:38;15.93;;;4.78;;
52692;SDS011;68218;51.012;-1.648;2023-04-03T15:52:04;15.15;;;4.60;;
52692;SDS011;68218;51.012;-1.648;2023-04-03T15:54:30;12.73;;;4.10;;
52692;SDS011;68218;51.012;-1.648;2023-04-03T15:56:56;12.55;;;4.15;;
52692;SDS011;68218;51.012;-1.648;2023-04-03T15:59:21;15.65;;;4.40;;
52692;SDS011;68218;51.012;-1.648;2023-04-03T16:01:47;10.95;;;3.53;;
52692;SDS011;68218;51.012;-1.648;2023-04-03T16:04:13;13.27;;;4.10;;
52692;SDS011;68218;51.012;-1.648;2023-04-03T16:06:40;12.95;;;4.38;;
52692;SDS011;68218;51.012;-1.648;2023-04-03T16:09:06;16.40;;;4.18;;
52692;SDS011;68218;51.012;-1.648;2023-04-03T16:11:32;15.25;;;4.10;;
52692;SDS011;68218;51.012;-1.648;2023-04-03T16:14:00;13.60;;;3.83;;
52692;SDS011;68218;51.012;-1.648;2023-04-03T16:16:26;15.73;;;4.20;;
52692;SDS011;68218;51.012;-1.648;2023-04-03T16:18:53;15.43;;;4.57;;
52692;SDS011;68218;51.012;-1.648;2023-04-03T16:21:20;10.15;;;3.67;;
52692;SDS011;68218;51.012;-1.648;2023-04-03T16:23:45;13.18;;;4.63;;
52692;SDS011;68218;51.012;-1.648;2023-04-03T16:26:11;11.85;;;3.88;;
52692;SDS011;68218;51.012;-1.648;2023-04-03T16:28:36;15.82;;;4.15;;
52692;SDS011;68218;51.012;-1.648;2023-04-03T16:31:02;13.35;;;4.65;;
52692;SDS011;68218;51.012;-1.648;2023-04-03T16:33:28;16.02;;;3.97;;
52692;SDS011;68218;51.012;-1.648;2023-04-03T16:35:55;13.77;;;3.83;;
52692;SDS011;68218;51.012;-1.648;2023-04-03T16:38:20;14.25;;;3.70;;
52692;SDS011;68218;51.012;-1.648;2023-04-03T16:40:47;16.65;;;4.03;;
52692;SDS011;68218;51.012;-1.648;2023-04-03T16:43:13;17.02;;;3.95;;
52692;SDS011;68218;51.012;-1.648;2023-04-03T16:45:39;17.23;;;3.80;;
52692;SDS011;68218;51.012;-1.648;2023-04-03T16:48:05;14.73;;;3.80;;
52692;SDS011;68218;51.012;-1.648;2023-04-03T16:50:31;11.00;;;3.35;;
52692;SDS011;68218;51.012;-1.648;2023-04-03T16:55:22;14.68;;;3.67;;
52692;SDS011;68218;51.012;-1.648;2023-04-03T17:00:13;11.18;;;3.63;;
52692;SDS011;68218;51.012;-1.648;2023-04-03T17:02:39;15.55;;;3.47;;
52692;SDS011;68218;51.012;-1.648;2023-04-03T17:05:05;14.40;;;3.65;;
52692;SDS011;68218;51.012;-1.648;2023-04-03T17:07:31;19.33;;;4.15;;
52692;SDS011;68218;51.012;-1.648;2023-04-03T17:09:57;15.23;;;3.33;;
52692;SDS011;68218;51.012;-1.648;2023-04-03T17:14:48;15.93;;;3.20;;
52692;SDS011;68218;51.012;-1.648;2023-04-03T17:17:14;15.70;;;3.78;;
52692;SDS011;68218;51.012;-1.648;2023-04-03T17:19:43;15.48;;;4.15;;
52692;SDS011;68218;51.012;-1.648;2023-04-03T17:22:09;11.65;;;3.20;;
52692;SDS011;68218;51.012;-1.648;2023-04-03T17:27:01;20.00;;;3.03;;
52692;SDS011;68218;51.012;-1.648;2023-04-03T17:29:27;15.23;;;2.90;;
52692;SDS011;68218;51.012;-1.648;2023-04-03T17:34:18;16.52;;;2.95;;
52692;SDS011;68218;51.012;-1.648;2023-04-03T17:39:09;18.55;;;3.40;;
52692;SDS011;68218;51.012;-1.648;2023-04-03T17:44:00;13.52;;;3.17;;
52692;SDS011;68218;51.012;-1.648;2023-04-03T17:48:51;16.42;;;3.60;;
52692;SDS011;68218;51.012;-1.648;2023-04-03T17:53:45;17.10;;;3.63;;
52692;SDS011;68218;51.012;-1.648;2023-04-03T17:56:15;18.80;;;3.33;;
52692;SDS011;68218;51.012;-1.648;2023-04-03T17:58:42;16.85;;;3.40;;
52692;SDS011;68218;51.012;-1.648;2023-04-03T18:03:37;13.55;;;2.85;;
52692;SDS011;68218;51.012;-1.648;2023-04-03T18:08:31;15.85;;;3.28;;
52692;SDS011;68218;51.012;-1.648;2023-04-03T18:11:01;16.55;;;3.67;;
52692;SDS011;68218;51.012;-1.648;2023-04-03T18:15:53;15.85;;;3.45;;
52692;SDS011;68218;51.012;-1.648;2023-04-03T18:20:43;17.40;;;3.13;;
52692;SDS011;68218;51.012;-1.648;2023-04-03T18:25:35;15.88;;;4.38;;
52692;SDS011;68218;51.012;-1.648;2023-04-03T18:28:01;17.83;;;3.97;;
52692;SDS011;68218;51.012;-1.648;2023-04-03T18:30:30;19.67;;;5.78;;
52692;SDS011;68218;51.012;-1.648;2023-04-03T18:32:58;22.67;;;5.38;;
52692;SDS011;68218;51.012;-1.648;2023-04-03T18:37:49;15.45;;;3.08;;
52692;SDS011;68218;51.012;-1.648;2023-04-03T18:42:40;11.43;;;2.92;;
52692;SDS011;68218;51.012;-1.648;2023-04-03T18:47:31;12.90;;;2.80;;
52692;SDS011;68218;51.012;-1.648;2023-04-03T18:52:22;14.45;;;2.80;;
52692;SDS011;68218;51.012;-1.648;2023-04-03T18:54:49;11.80;;;2.85;;
52692;SDS011;68218;51.012;-1.648;2023-04-03T18:59:40;16.48;;;3.83;;
52692;SDS011;68218;51.012;-1.648;2023-04-03T19:04:34;15.10;;;3.72;;
52692;SDS011;68218;51.012;-1.648;2023-04-03T19:07:00;13.77;;;4.25;;
52692;SDS011;68218;51.012;-1.648;2023-04-03T19:09:30;15.93;;;4.05;;
52692;SDS011;68218;51.012;-1.648;2023-04-03T19:11:57;18.50;;;4.28;;
52692;SDS011;68218;51.012;-1.648;2023-04-03T19:16:47;18.38;;;4.40;;
52692;SDS011;68218;51.012;-1.648;2023-04-03T19:21:38;20.70;;;6.53;;
52692;SDS011;68218;51.012;-1.648;2023-04-03T19:24:06;35.10;;;12.18;;
52692;SDS011;68218;51.012;-1.648;2023-04-03T19:26:35;40.75;;;11.45;;
52692;SDS011;68218;51.012;-1.648;2023-04-03T19:31:26;96.32;;;40.78;;
52692;SDS011;68218;51.012;-1.648;2023-04-03T19:36:17;98.07;;;38.88;;
52692;SDS011;68218;51.012;-1.648;2023-04-03T19:41:12;44.17;;;17.17;;
52692;SDS011;68218;51.012;-1.648;2023-04-03T19:43:41;45.25;;;19.60;;
52692;SDS011;68218;51.012;-1.648;2023-04-03T19:48:32;46.53;;;20.50;;
52692;SDS011;68218;51.012;-1.648;2023-04-03T19:50:58;41.45;;;17.40;;
52692;SDS011;68218;51.012;-1.648;2023-04-03T19:55:53;33.17;;;16.00;;
52692;SDS011;68218;51.012;-1.648;2023-04-03T19:58:20;29.45;;;13.68;;
52692;SDS011;68218;51.012;-1.648;2023-04-03T20:03:11;22.27;;;10.70;;
52692;SDS011;68218;51.012;-1.648;2023-04-03T20:08:02;23.63;;;8.35;;
52692;SDS011;68218;51.012;-1.648;2023-04-03T20:10:27;25.70;;;8.25;;
52692;SDS011;68218;51.012;-1.648;2023-04-03T20:15:18;16.40;;;5.93;;
52692;SDS011;68218;51.012;-1.648;2023-04-03T20:20:09;24.23;;;8.38;;
52692;SDS011;68218;51.012;-1.648;2023-04-03T20:22:36;17.65;;;7.75;;
52692;SDS011;68218;51.012;-1.648;2023-04-03T20:25:03;23.23;;;8.10;;
52692;SDS011;68218;51.012;-1.648;2023-04-03T20:27:31;17.52;;;6.78;;
52692;SDS011;68218;51.012;-1.648;2023-04-03T20:32:22;20.88;;;6.80;;
52692;SDS011;68218;51.012;-1.648;2023-04-03T20:37:13;27.05;;;7.03;;
52692;SDS011;68218;51.012;-1.648;2023-04-03T20:39:44;18.52;;;6.97;;
52692;SDS011;68218;51.012;-1.648;2023-04-03T20:44:35;25.80;;;6.85;;
52692;SDS011;68218;51.012;-1.648;2023-04-03T20:49:26;20.50;;;6.75;;
52692;SDS011;68218;51.012;-1.648;2023-04-03T20:54:16;17.63;;;6.72;;
52692;SDS011;68218;51.012;-1.648;2023-04-03T20:56:43;16.48;;;5.95;;
52692;SDS011;68218;51.012;-1.648;2023-04-03T21:01:35;18.73;;;6.10;;
52692;SDS011;68218;51.012;-1.648;2023-04-03T21:04:06;18.77;;;6.82;;
52692;SDS011;68218;51.012;-1.648;2023-04-03T21:21:06;20.42;;;6.65;;
52692;SDS011;68218;51.012;-1.648;2023-04-03T21:23:47;23.95;;;6.88;;
52692;SDS011;68218;51.012;-1.648;2023-04-03T21:26:13;15.73;;;6.05;;
52692;SDS011;68218;51.012;-1.648;2023-04-03T21:28:40;18.25;;;6.40;;
52692;SDS011;68218;51.012;-1.648;2023-04-03T21:31:07;19.48;;;6.35;;
52692;SDS011;68218;51.012;-1.648;2023-04-03T21:35:57;19.88;;;5.95;;
52692;SDS011;68218;51.012;-1.648;2023-04-03T21:40:54;17.60;;;6.00;;
52692;SDS011;68218;51.012;-1.648;2023-04-03T21:43:20;16.92;;;5.85;;
52692;SDS011;68218;51.012;-1.648;2023-04-03T21:48:12;17.80;;;6.20;;
52692;SDS011;68218;51.012;-1.648;2023-04-03T21:50:41;19.80;;;6.65;;
52692;SDS011;68218;51.012;-1.648;2023-04-03T21:55:32;23.08;;;6.78;;
52692;SDS011;68218;51.012;-1.648;2023-04-03T21:57:57;23.67;;;7.13;;
52692;SDS011;68218;51.012;-1.648;2023-04-03T22:00:23;18.55;;;5.38;;
52692;SDS011;68218;51.012;-1.648;2023-04-03T22:05:14;17.98;;;5.28;;
52692;SDS011;68218;51.012;-1.648;2023-04-03T22:07:42;20.45;;;5.75;;
52692;SDS011;68218;51.012;-1.648;2023-04-03T22:10:09;28.60;;;7.82;;
52692;SDS011;68218;51.012;-1.648;2023-04-03T22:14:59;27.08;;;9.43;;
52692;SDS011;68218;51.012;-1.648;2023-04-03T22:17:28;19.67;;;7.45;;
52692;SDS011;68218;51.012;-1.648;2023-04-03T22:19:55;17.33;;;6.00;;
52692;SDS011;68218;51.012;-1.648;2023-04-03T22:24:46;19.30;;;5.72;;
52692;SDS011;68218;51.012;-1.648;2023-04-03T22:27:11;18.17;;;5.35;;
52692;SDS011;68218;51.012;-1.648;2023-04-03T22:29:37;17.42;;;4.72;;
52692;SDS011;68218;51.012;-1.648;2023-04-03T22:32:03;19.95;;;5.43;;
52692;SDS011;68218;51.012;-1.648;2023-04-03T22:34:28;14.40;;;4.53;;
52692;SDS011;68218;51.012;-1.648;2023-04-03T22:36:54;15.75;;;4.10;;
52692;SDS011;68218;51.012;-1.648;2023-04-03T22:39:19;15.90;;;4.50;;
52692;SDS011;68218;51.012;-1.648;2023-04-03T22:41:44;13.10;;;4.28;;
52692;SDS011;68218;51.012;-1.648;2023-04-03T22:44:10;13.70;;;4.63;;
52692;SDS011;68218;51.012;-1.648;2023-04-03T22:46:36;12.82;;;3.65;;
52692;SDS011;68218;51.012;-1.648;2023-04-03T22:49:02;15.00;;;4.30;;
52692;SDS011;68218;51.012;-1.648;2023-04-03T22:51:28;13.05;;;4.10;;
52692;SDS011;68218;51.012;-1.648;2023-04-03T22:53:53;15.20;;;4.57;;
52692;SDS011;68218;51.012;-1.648;2023-04-03T22:58:45;15.60;;;4.18;;
52692;SDS011;68218;51.012;-1.648;2023-04-03T23:01:12;14.75;;;3.90;;
52692;SDS011;68218;51.012;-1.648;2023-04-03T23:03:40;16.17;;;4.20;;
52692;SDS011;68218;51.012;-1.648;2023-04-03T23:06:06;18.25;;;4.15;;
52692;SDS011;68218;51.012;-1.648;2023-04-03T23:08:33;13.25;;;3.90;;
52692;SDS011;68218;51.012;-1.648;2023-04-03T23:11:02;17.17;;;4.28;;
52692;SDS011;68218;51.012;-1.648;2023-04-03T23:13:31;18.85;;;3.80;;
52692;SDS011;68218;51.012;-1.648;2023-04-03T23:15:57;15.98;;;3.50;;
52692;SDS011;68218;51.012;-1.648;2023-04-03T23:18:24;14.45;;;3.95;;
52692;SDS011;68218;51.012;-1.648;2023-04-03T23:20:50;15.93;;;4.10;;
52692;SDS011;68218;51.012;-1.648;2023-04-03T23:23:18;16.45;;;4.05;;
52692;SDS011;68218;51.012;-1.648;2023-04-03T23:25:56;14.50;;;4.32;;
52692;SDS011;68218;51.012;-1.648;2023-04-03T23:28:25;14.80;;;3.50;;
52692;SDS011;68218;51.012;-1.648;2023-04-03T23:30:58;12.95;;;3.83;;
52692;SDS011;68218;51.012;-1.648;2023-04-03T23:33:25;14.65;;;3.78;;
52692;SDS011;68218;51.012;-1.648;2023-04-03T23:35:51;14.15;;;3.72;;
52692;SDS011;68218;51.012;-1.648;2023-04-03T23:38:17;21.45;;;4.28;;
52692;SDS011;68218;51.012;-1.648;2023-04-03T23:40:43;16.33;;;4.30;;
52692;SDS011;68218;51.012;-1.648;2023-04-03T23:43:10;15.18;;;3.97;;
52692;SDS011;68218;51.012;-1.648;2023-04-03T23:45:36;14.13;;;3.92;;
52692;SDS011;68218;51.012;-1.648;2023-04-03T23:50:26;12.10;;;3.40;;
52692;SDS011;68218;51.012;-1.648;2023-04-03T23:52:53;15.88;;;3.45;;
52692;SDS011;68218;51.012;-1.648;2023-04-03T23:55:19;11.60;;;3.08;;
52692;SDS011;68218;51.012;-1.648;2023-04-03T23:57:44;11.98;;;3.03;;
